Time;durP1;ratioP1;P1;durP2;ratioP2;P2;SDS_P1;SDS_P2;PMS_P1;PMS_P2;Temp;Humidity;BMP_temperature;BMP_pressure;BME280_temperature;BME280_humidity;BME280_pressure;Samples;Min_cycle;Max_cycle;Signal;HPM_P1;HPM_P2
2022/01/19 00:01:15;;;;;;;;;27.00;21.67;;;;;8.12;95.42;102385.63;4857824;29;45292;-84
2022/01/19 00:03:41;;;;;;;;;19.33;17.67;;;;;8.14;95.20;102397.22;4858504;29;45471;-83
2022/01/19 00:06:07;;;;;;;;;21.00;21.00;;;;;8.12;95.53;102385.63;4858813;29;45317;-85
2022/01/19 00:08:33;;;;;;;;;19.33;17.00;;;;;8.19;95.97;102394.78;4874546;29;47199;-85
2022/01/19 00:14:46;;;;;;;;;30.67;21.67;;;;;8.29;96.29;102380.25;4874858;29;45394;-84
2022/01/19 00:17:12;;;;;;;;;20.33;16.67;;;;;8.24;96.15;102377.38;4874887;29;45431;-84
2022/01/19 00:19:37;;;;;;;;;27.67;22.67;;;;;8.23;95.54;102369.34;4872697;29;47220;-84
2022/01/19 00:22:03;;;;;;;;;12.00;10.33;;;;;8.21;94.96;102351.59;4874413;29;45420;-85
2022/01/19 00:24:29;;;;;;;;;25.00;18.33;;;;;8.14;92.39;102328.31;4857960;29;45273;-85
2022/01/19 00:26:55;;;;;;;;;22.00;20.00;;;;;8.06;95.01;102321.72;4874799;29;45418;-85
2022/01/19 00:29:20;;;;;;;;;24.33;21.67;;;;;8.03;95.62;102316.25;4858053;29;46988;-85
2022/01/19 00:31:45;;;;;;;;;21.67;18.33;;;;;8.14;95.52;102319.41;4860082;29;44759;-84
2022/01/19 00:34:11;;;;;;;;;24.67;22.00;;;;;8.12;95.75;102311.44;4875399;29;45360;-85
2022/01/19 00:36:36;;;;;;;;;15.00;15.00;;;;;8.14;95.32;102298.22;4858002;29;45164;-84
2022/01/19 00:39:02;;;;;;;;;23.00;21.67;;;;;8.16;95.90;102301.84;4857276;29;47183;-84
2022/01/19 00:41:27;;;;;;;;;22.33;21.00;;;;;8.21;95.94;102305.66;4856157;29;45916;-84
2022/01/19 00:43:53;;;;;;;;;21.33;17.00;;;;;8.23;96.09;102303.09;4856612;29;45837;-84
2022/01/19 00:46:18;;;;;;;;;26.33;22.00;;;;;8.26;95.54;102313.81;4871865;29;45456;-84
2022/01/19 00:48:43;;;;;;;;;19.67;19.33;;;;;8.26;95.83;102319.13;4872667;29;45835;-84
2022/01/19 00:51:09;;;;;;;;;21.00;17.33;;;;;8.29;95.80;102314.88;4873043;29;45446;-84
2022/01/19 00:53:34;;;;;;;;;19.67;17.00;;;;;8.31;95.64;102314.97;4871601;29;45846;-84
2022/01/19 00:56:00;;;;;;;;;19.33;19.33;;;;;8.33;95.57;102322.16;4874009;29;45469;-85
2022/01/19 00:58:26;;;;;;;;;19.33;17.33;;;;;8.32;95.32;102328.31;4872245;29;46747;-85
2022/01/19 01:00:51;;;;;;;;;24.00;22.67;;;;;8.27;95.33;102320.97;4871577;29;45558;-84
2022/01/19 01:03:17;;;;;;;;;20.67;20.67;;;;;8.24;95.87;102327.03;4873121;29;44797;-85
2022/01/19 01:05:44;;;;;;;;;25.67;19.67;;;;;8.24;95.00;102320.78;4871951;29;45419;-85
2022/01/19 01:08:10;;;;;;;;;21.00;20.67;;;;;8.21;95.38;102322.47;4872001;29;47786;-85
2022/01/19 01:10:42;;;;;;;;;20.67;20.33;;;;;8.09;95.27;102279.47;4875993;29;45428;-85
2022/01/19 01:15:23;;;;;;;;;24.33;22.00;;;;;8.25;95.47;102290.81;4874197;29;45511;-85
2022/01/19 01:16:18;;;;;;;;;19.00;16.00;;;;;8.25;95.28;102285.53;4874737;29;44834;-85
2022/01/19 01:18:44;;;;;;;;;23.67;20.67;;;;;8.29;95.12;102282.19;4873394;29;47787;-85
2022/01/19 01:21:10;;;;;;;;;22.00;18.67;;;;;8.22;95.28;102281.00;4873131;29;45305;-85
2022/01/19 01:24:13;;;;;;;;;23.00;19.00;;;;;8.33;95.73;102276.19;4873597;29;45350;-84
2022/01/19 01:26:39;;;;;;;;;23.33;20.33;;;;;8.29;95.77;102263.63;4873624;29;45466;-85
2022/01/19 01:29:04;;;;;;;;;18.00;18.00;;;;;8.30;95.87;102268.06;4858656;29;46700;-85
2022/01/19 01:31:30;;;;;;;;;23.33;22.67;;;;;8.19;95.12;102273.78;4873158;29;45534;-84
2022/01/19 01:33:55;;;;;;;;;21.00;21.00;;;;;8.18;94.25;102284.28;4856925;29;45459;-85
2022/01/19 01:36:21;;;;;;;;;20.67;20.67;;;;;8.20;95.54;102294.16;4872964;29;45896;-85
2022/01/19 01:38:46;;;;;;;;;24.00;20.67;;;;;8.23;95.95;102292.47;4873012;29;46861;-85
2022/01/19 01:41:14;;;;;;;;;23.00;21.00;;;;;8.26;95.33;102289.97;4871691;29;45541;-85
2022/01/19 01:43:42;;;;;;;;;21.67;20.00;;;;;8.26;95.81;102288.25;4856889;29;45437;-85
2022/01/19 01:46:12;;;;;;;;;19.67;19.67;;;;;8.19;95.89;102273.78;4873083;29;45381;-84
2022/01/19 01:48:43;;;;;;;;;21.67;18.67;;;;;8.24;95.65;102281.97;4857297;29;47066;-85
2022/01/19 01:53:58;;;;;;;;;21.33;20.00;;;;;8.19;93.42;102265.81;4872644;29;45470;-85
2022/01/19 01:56:24;;;;;;;;;15.67;13.00;;;;;8.19;95.76;102275.53;4856401;29;45583;-85
2022/01/19 01:58:50;;;;;;;;;19.33;18.33;;;;;8.18;95.25;102269.31;4872299;29;46910;-86
2022/01/19 02:01:17;;;;;;;;;20.00;18.33;;;;;8.14;95.69;102262.06;4873032;29;45383;-85
2022/01/19 02:03:44;;;;;;;;;21.67;20.33;;;;;8.13;95.58;102260.22;4857680;29;45672;-85
2022/01/19 02:06:29;;;;;;;;;22.67;20.67;;;;;8.16;95.27;102257.75;4857660;29;45556;-85
2022/01/19 02:09:17;;;;;;;;;26.00;23.33;;;;;8.12;94.30;102247.81;4873386;29;45034;-84
2022/01/19 02:23:06;;;;;;;;;24.00;20.67;;;;;8.09;94.31;102194.66;4871634;29;45464;-84
2022/01/19 02:25:37;;;;;;;;;28.67;21.33;;;;;8.08;95.26;102211.41;4855839;29;45452;-84
2022/01/19 02:41:26;;;;;;;;;29.33;23.33;;;;;7.93;95.16;102181.53;4872905;29;45003;-85
2022/01/19 02:43:52;;;;;;;;;22.67;20.67;;;;;7.87;95.24;102166.25;4873411;29;44789;-84
2022/01/19 02:49:19;;;;;;;;;26.33;24.33;;;;;7.85;95.20;102153.75;4799238;29;45517;-85
2022/01/19 02:51:48;;;;;;;;;24.00;22.00;;;;;7.92;94.67;102159.44;4799126;29;47022;-85
2022/01/19 02:54:24;;;;;;;;;23.33;20.33;;;;;7.92;95.88;102148.84;4798382;29;45435;-85
2022/01/19 02:56:53;;;;;;;;;24.00;21.67;;;;;7.92;95.53;102154.13;4796463;29;45781;-85
2022/01/19 02:59:27;;;;;;;;;25.67;23.67;;;;;7.87;95.65;102133.56;4796912;29;45451;-85
2022/01/19 03:10:05;;;;;;;;;16.00;15.00;;;;;7.93;94.72;102140.03;4796717;29;45451;-85
2022/01/19 03:12:32;;;;;;;;;26.67;21.67;;;;;7.88;93.86;102145.97;4780916;29;46805;-84
2022/01/19 03:14:57;;;;;;;;;24.67;23.33;;;;;7.81;94.66;102145.66;4780897;29;45868;-85
2022/01/19 03:17:23;;;;;;;;;21.00;20.67;;;;;7.84;95.39;102144.00;4798610;29;45411;-85
2022/01/19 03:19:48;;;;;;;;;19.33;19.33;;;;;7.82;95.71;102136.00;4799102;29;45477;-84
2022/01/19 03:22:13;;;;;;;;;29.33;23.00;;;;;7.86;93.43;102137.03;4798351;29;47328;-85
2022/01/19 03:24:48;;;;;;;;;22.67;22.33;;;;;7.80;94.99;102129.72;4824353;29;45391;-85
2022/01/19 03:27:13;;;;;;;;;25.00;23.00;;;;;7.80;95.74;102130.63;4857408;29;45407;-85
2022/01/19 03:29:39;;;;;;;;;21.67;20.67;;;;;7.77;95.62;102127.81;4874968;29;45270;-85
2022/01/19 03:32:04;;;;;;;;;22.00;21.67;;;;;7.82;95.86;102128.06;4857412;29;48230;-85
2022/01/19 03:34:30;;;;;;;;;26.33;22.00;;;;;7.82;96.04;102128.94;4873968;29;45402;-85
2022/01/19 03:36:56;;;;;;;;;23.00;20.67;;;;;7.89;96.36;102134.53;4873914;29;45108;-84
2022/01/19 03:39:22;;;;;;;;;25.33;23.00;;;;;7.91;96.25;102122.28;4874124;29;45485;-85
2022/01/19 03:41:47;;;;;;;;;22.33;21.67;;;;;7.97;96.19;102125.22;4872953;29;47627;-85
2022/01/19 03:44:13;;;;;;;;;25.00;23.67;;;;;7.98;95.87;102122.63;4873422;29;45543;-85
2022/01/19 03:46:53;;;;;;;;;26.00;23.00;;;;;7.92;96.14;102118.81;4857395;29;45298;-85
2022/01/19 03:49:23;;;;;;;;;26.67;22.33;;;;;7.96;95.89;102126.97;4873302;29;44868;-84
2022/01/19 03:51:49;;;;;;;;;30.00;28.33;;;;;7.95;96.17;102121.56;4857852;29;47462;-84
2022/01/19 03:54:16;;;;;;;;;23.33;20.67;;;;;8.07;95.98;102121.25;4855818;29;45925;-85
2022/01/19 03:56:41;;;;;;;;;18.67;14.33;;;;;8.02;96.33;102116.66;4871871;29;45427;-84
2022/01/19 03:59:07;;;;;;;;;25.67;22.67;;;;;8.06;95.94;102106.16;4872248;29;45783;-85
2022/01/19 04:01:32;;;;;;;;;21.67;19.67;;;;;8.12;95.94;102104.72;4855716;29;47191;-85
2022/01/19 04:04:22;;;;;;;;;20.00;20.00;;;;;8.10;95.88;102101.09;4874223;29;45661;-85
2022/01/19 04:07:01;;;;;;;;;21.33;20.67;;;;;8.11;96.20;102102.91;4873618;29;45352;-84
2022/01/19 04:09:30;;;;;;;;;25.33;21.67;;;;;8.13;96.39;102102.97;4870921;29;45929;-85
2022/01/19 04:11:55;;;;;;;;;23.33;22.67;;;;;8.15;96.39;102103.97;4872356;29;47702;-85
2022/01/19 04:14:21;;;;;;;;;23.67;18.67;;;;;8.14;96.40;102100.41;4871927;29;45491;-85
2022/01/19 04:16:48;;;;;;;;;28.33;25.00;;;;;8.12;96.17;102102.09;4872994;29;45545;-85
2022/01/19 04:19:28;;;;;;;;;28.00;24.67;;;;;8.07;96.52;102085.06;4856261;29;45583;-85
2022/01/19 04:21:55;;;;;;;;;26.00;23.00;;;;;8.16;96.59;102093.44;4855830;29;47333;-85
2022/01/19 04:25:12;;;;;;;;;28.00;25.33;;;;;8.27;96.33;102099.22;4871076;29;44909;-85
2022/01/19 04:27:38;;;;;;;;;25.00;24.00;;;;;8.17;96.17;102108.47;4855979;29;45519;-84
2022/01/19 04:30:12;;;;;;;;;22.00;21.67;;;;;8.18;96.41;102107.66;4874299;29;45447;-85
2022/01/19 04:35:45;;;;;;;;;27.00;25.00;;;;;8.19;96.08;102117.41;4855614;29;44858;-84
2022/01/19 05:05:45;;;;;;;;;30.33;27.00;;;;;8.10;96.32;102106.41;4875332;29;45477;-85
2022/01/19 05:13:53;;;;;;;;;27.67;25.00;;;;;8.03;95.16;102106.94;4870120;29;45479;-85
2022/01/19 05:16:20;;;;;;;;;24.67;24.67;;;;;8.00;96.42;102105.06;4854038;29;48091;-85
2022/01/19 05:18:47;;;;;;;;;26.67;25.67;;;;;7.96;96.50;102102.22;4870839;29;45491;-85
2022/01/19 05:21:14;;;;;;;;;33.00;28.00;;;;;7.85;95.77;102100.78;4871087;29;45343;-85
2022/01/19 05:23:39;;;;;;;;;30.67;30.00;;;;;7.70;95.89;102082.44;4871670;29;45455;-86
2022/01/19 05:26:05;;;;;;;;;25.67;25.00;;;;;7.66;96.07;102081.38;4855729;29;46398;-85
2022/01/19 05:28:30;;;;;;;;;31.00;28.67;;;;;7.64;96.45;102077.75;4871030;29;45474;-85
2022/01/19 05:30:55;;;;;;;;;32.67;28.67;;;;;7.71;97.08;102095.75;4872276;29;44795;-86
2022/01/19 05:33:21;;;;;;;;;38.67;31.33;;;;;7.70;97.17;102093.94;4874608;29;44830;-85
2022/01/19 05:35:46;;;;;;;;;36.67;32.00;;;;;7.71;96.15;102101.03;4857664;29;47162;-85
2022/01/19 05:38:12;;;;;;;;;37.67;35.67;;;;;7.60;97.22;102094.34;4856557;29;44855;-85
2022/01/19 05:40:38;;;;;;;;;32.00;28.33;;;;;7.59;95.10;102104.03;4870692;29;45503;-85
2022/01/19 05:43:03;;;;;;;;;34.67;31.00;;;;;7.45;96.92;102093.59;4855043;29;45425;-85
2022/01/19 05:45:29;;;;;;;;;28.67;26.33;;;;;7.45;97.38;102097.13;4870825;29;45429;-86
2022/01/19 05:48:04;;;;;;;;;37.33;31.33;;;;;7.42;97.38;102091.72;4855630;29;45425;-85
2022/01/19 05:50:29;;;;;;;;;33.00;30.67;;;;;7.34;96.72;102082.50;4872716;29;45332;-85
2022/01/19 05:52:54;;;;;;;;;36.33;33.33;;;;;7.40;96.57;102104.84;4872538;29;45380;-85
2022/01/19 05:55:22;;;;;;;;;38.00;33.67;;;;;7.39;96.55;102105.72;4874934;29;45203;-85
2022/01/19 05:57:49;;;;;;;;;42.33;33.33;;;;;7.06;96.56;102053.78;4876463;29;45465;-85
2022/01/19 06:00:15;;;;;;;;;37.33;31.33;;;;;7.22;97.72;102088.97;4873572;29;45542;-84
2022/01/19 06:02:40;;;;;;;;;31.67;29.00;;;;;7.23;97.68;102089.91;4871942;29;44902;-84
2022/01/19 06:05:06;;;;;;;;;38.00;36.00;;;;;7.27;96.24;102099.81;4873175;29;47274;-85
2022/01/19 06:07:41;;;;;;;;;35.67;33.67;;;;;7.24;98.31;102091.72;4873988;29;44867;-84
2022/01/19 06:10:42;;;;;;;;;39.67;33.00;;;;;7.34;98.14;102104.56;4872373;29;45487;-85
2022/01/19 06:13:03;;;;;;;;;42.00;35.67;;;;;7.33;98.53;102096.53;4876133;29;45231;-84
2022/01/19 06:15:29;;;;;;;;;35.67;33.67;;;;;7.34;98.42;102088.69;4874677;29;45397;-85
2022/01/19 06:17:54;;;;;;;;;38.33;35.33;;;;;7.40;98.31;102094.28;4874206;29;45758;-84
2022/01/19 06:20:20;;;;;;;;;39.33;32.33;;;;;7.45;98.31;102101.53;4873905;29;45154;-84
2022/01/19 06:22:46;;;;;;;;;43.00;36.67;;;;;7.44;98.10;102092.69;4873043;29;45396;-85
2022/01/19 06:25:11;;;;;;;;;42.00;39.00;;;;;7.45;98.58;102083.91;4873282;29;46620;-85
2022/01/19 06:27:37;;;;;;;;;38.33;35.33;;;;;7.49;97.96;102088.50;4873019;29;44788;-85
2022/01/19 06:30:03;;;;;;;;;38.33;35.00;;;;;7.48;97.99;102080.53;4870753;29;44718;-85
2022/01/19 06:32:29;;;;;;;;;35.00;31.67;;;;;7.44;98.01;102082.09;4874723;29;45433;-85
2022/01/19 06:34:54;;;;;;;;;39.33;36.00;;;;;7.54;97.88;102096.69;4872244;29;48061;-85
2022/01/19 06:37:20;;;;;;;;;51.33;39.33;;;;;7.51;98.49;102089.50;4872042;29;45092;-85
2022/01/19 06:43:08;;;;;;;;;31.33;30.00;;;;;7.61;98.68;102082.91;4873033;29;45404;-85
2022/01/19 06:45:34;;;;;;;;;39.00;38.33;;;;;7.54;98.37;102076.41;4870904;29;46978;-85
2022/01/19 06:47:59;;;;;;;;;40.00;34.00;;;;;7.56;97.83;102073.84;4870286;29;46019;-85
2022/01/19 06:50:25;;;;;;;;;35.00;29.00;;;;;7.41;98.60;102056.41;4870496;29;45444;-86
2022/01/19 06:52:51;;;;;;;;;38.67;34.33;;;;;7.56;98.61;102085.34;4873079;29;45398;-85
2022/01/19 06:55:18;;;;;;;;;37.67;35.67;;;;;7.59;98.44;102077.56;4870982;29;47247;-85
2022/01/19 06:57:47;;;;;;;;;43.00;37.67;;;;;7.60;98.23;102082.00;4872132;29;45332;-85
2022/01/19 07:00:13;;;;;;;;;39.33;32.67;;;;;7.64;98.67;102080.41;4873660;29;45311;-85
2022/01/19 07:02:39;;;;;;;;;35.00;34.00;;;;;7.62;98.76;102068.84;4873525;29;45927;-85
2022/01/19 07:05:05;;;;;;;;;43.00;38.67;;;;;7.69;98.45;102075.31;4874251;29;45710;-85
2022/01/19 07:07:31;;;;;;;;;33.33;32.67;;;;;7.72;98.52;102078.13;4855078;29;44992;-87
2022/01/19 07:09:56;;;;;;;;;39.33;36.67;;;;;7.69;98.74;102070.03;4872057;29;44822;-87
2022/01/19 07:12:26;;;;;;;;;36.33;32.33;;;;;7.80;98.54;102075.00;4873114;29;44868;-87
2022/01/19 07:14:51;;;;;;;;;41.33;35.67;;;;;7.72;98.84;102052.56;4872276;29;45375;-87
2022/01/19 07:17:17;;;;;;;;;34.33;32.00;;;;;7.79;98.60;102053.72;4870918;29;45400;-87
2022/01/19 07:19:42;;;;;;;;;43.67;38.33;;;;;7.93;98.53;102070.28;4872225;29;45013;-84
2022/01/19 07:22:08;;;;;;;;;32.00;28.33;;;;;7.93;98.33;102070.28;4871588;29;45743;-85
2022/01/19 07:24:33;;;;;;;;;44.67;37.33;;;;;7.93;98.17;102070.28;4869683;29;47120;-84
2022/01/19 07:26:59;;;;;;;;;40.67;38.33;;;;;7.96;97.69;102081.03;4857789;29;45950;-84
2022/01/19 07:29:25;;;;;;;;;41.67;37.33;;;;;7.88;98.48;102088.59;4874834;29;45336;-84
2022/01/19 07:31:51;;;;;;;;;41.67;38.67;;;;;7.82;98.49;102075.97;4857803;29;45602;-84
2022/01/19 07:34:16;;;;;;;;;40.67;37.00;;;;;7.86;98.09;102094.66;4868670;29;47681;-85
2022/01/19 07:36:42;;;;;;;;;39.67;35.33;;;;;7.87;97.67;102101.78;4851387;29;45777;-84
2022/01/19 07:39:08;;;;;;;;;37.33;31.67;;;;;7.78;98.50;102089.91;4852998;29;45427;-84
2022/01/19 07:41:34;;;;;;;;;40.33;37.33;;;;;7.69;97.74;102086.81;4872001;29;45472;-84
2022/01/19 07:44:01;;;;;;;;;40.67;38.67;;;;;7.71;98.36;102085.16;4875007;29;45404;-84
2022/01/19 07:46:29;;;;;;;;;38.33;36.33;;;;;7.74;98.77;102080.00;4873746;29;45842;-84
2022/01/19 07:48:54;;;;;;;;;45.00;39.33;;;;;7.77;98.83;102089.84;4875418;29;45472;-84
2022/01/19 07:51:20;;;;;;;;;38.33;34.00;;;;;7.85;98.72;102090.19;4877490;29;45463;-84
2022/01/19 07:53:45;;;;;;;;;36.67;34.33;;;;;7.88;98.10;102088.59;4876694;29;47256;-84
2022/01/19 07:56:11;;;;;;;;;48.33;40.00;;;;;7.84;97.12;102091.00;4862997;29;45081;-84
2022/01/19 07:58:37;;;;;;;;;40.00;36.67;;;;;7.77;98.41;102097.78;4856498;29;44821;-85
2022/01/19 08:01:02;;;;;;;;;45.33;37.00;;;;;7.74;98.20;102085.31;4859470;29;45690;-84
2022/01/19 08:03:28;;;;;;;;;36.33;33.00;;;;;7.76;98.71;102086.28;4881826;29;45284;-85
2022/01/19 08:05:53;;;;;;;;;37.00;32.33;;;;;7.77;98.73;102077.50;4860452;29;45441;-85
2022/01/19 08:08:19;;;;;;;;;46.00;39.67;;;;;7.84;98.87;102088.38;4877183;29;45883;-82
2022/01/19 08:10:45;;;;;;;;;42.00;39.33;;;;;7.90;98.94;102083.38;4859642;29;45335;-85
2022/01/19 08:13:14;;;;;;;;;38.33;36.33;;;;;7.99;98.72;102094.41;4877634;29;45532;-85
2022/01/19 08:15:42;;;;;;;;;40.33;33.33;;;;;7.99;98.83;102087.34;4845486;29;45462;-85
2022/01/19 08:18:08;;;;;;;;;30.33;30.00;;;;;7.90;98.79;102068.41;4882379;29;45358;-85
2022/01/19 08:20:33;;;;;;;;;43.00;32.33;;;;;8.00;98.36;102082.97;4881379;29;45339;-85
2022/01/19 08:22:59;;;;;;;;;36.33;32.33;;;;;8.08;98.08;102093.91;4879355;29;45320;-86
2022/01/19 08:25:31;;;;;;;;;39.00;36.00;;;;;7.97;98.08;102067.81;4879008;29;45645;-85
2022/01/19 08:27:57;;;;;;;;;34.33;33.33;;;;;8.01;98.44;102090.06;4877626;29;45466;-86
2022/01/19 08:30:25;;;;;;;;;38.33;36.00;;;;;7.99;98.10;102073.19;4876217;29;45692;-85
2022/01/19 08:32:58;;;;;;;;;37.33;34.67;;;;;8.07;98.64;102089.47;4877960;29;45282;-85
2022/01/19 08:35:24;;;;;;;;;35.67;30.00;;;;;8.07;98.27;102085.06;4878319;29;45823;-85
2022/01/19 08:37:49;;;;;;;;;42.33;35.67;;;;;8.06;98.09;102088.56;4869122;29;44870;-85
2022/01/19 08:44:14;;;;;;;;;42.67;37.67;;;;;8.29;98.06;102117.84;4878406;29;44976;-84
2022/01/19 08:46:40;;;;;;;;;44.33;34.67;;;;;8.21;97.96;102131.63;4857138;29;45483;-83
2022/01/19 08:49:08;;;;;;;;;37.33;35.00;;;;;8.26;97.64;102123.00;4864188;29;44962;-84
2022/01/19 08:51:34;;;;;;;;;34.67;32.67;;;;;8.14;98.60;102115.38;4849035;29;44845;-84
2022/01/19 08:54:02;;;;;;;;;42.67;38.00;;;;;8.20;98.20;102123.59;4863917;29;45724;-84
2022/01/19 08:57:10;;;;;;;;;37.33;33.00;;;;;8.29;98.32;102133.75;4877101;29;45575;-83
2022/01/19 08:59:36;;;;;;;;;37.67;34.33;;;;;8.20;97.72;102119.25;4875182;29;45546;-83
2022/01/19 09:02:01;;;;;;;;;34.00;32.67;;;;;8.18;98.07;102117.34;4876132;29;45430;-84
2022/01/19 09:04:27;;;;;;;;;48.33;39.00;;;;;8.23;98.24;102125.50;4877000;29;46402;-83
2022/01/19 09:06:58;;;;;;;;;39.00;33.67;;;;;8.26;97.76;102130.94;4875561;29;44940;-84
2022/01/19 09:09:24;;;;;;;;;38.00;36.33;;;;;8.31;98.49;102132.06;4860382;29;45378;-85
2022/01/19 09:11:51;;;;;;;;;41.67;38.33;;;;;8.34;98.21;102140.16;4879580;29;44813;-84
2022/01/19 09:14:17;;;;;;;;;40.67;37.00;;;;;8.33;98.17;102138.34;4874391;29;45474;-83
2022/01/19 09:16:44;;;;;;;;;36.67;32.67;;;;;8.30;98.15;102127.59;4876185;29;45604;-83
2022/01/19 09:19:12;;;;;;;;;44.33;36.33;;;;;8.32;98.24;102137.44;4875571;29;45363;-84
2022/01/19 09:25:04;;;;;;;;;39.33;36.00;;;;;8.41;97.39;102137.00;4866607;29;44958;-82
2022/01/19 09:27:31;;;;;;;;;47.00;38.00;;;;;8.35;97.65;102142.88;4872836;29;45424;-84
2022/01/19 09:29:56;;;;;;;;;37.33;32.33;;;;;8.39;97.92;102143.94;4843070;29;44887;-85
2022/01/19 09:32:23;;;;;;;;;43.00;38.00;;;;;8.37;97.87;102145.59;4858261;29;45551;-85
2022/01/19 09:34:54;;;;;;;;;44.67;37.00;;;;;8.38;97.49;102144.75;4863894;29;45404;-83
2022/01/19 09:37:20;;;;;;;;;41.00;35.67;;;;;8.45;97.56;102151.28;4872594;29;45384;-86
2022/01/19 09:39:47;;;;;;;;;39.67;36.00;;;;;8.48;97.20;102149.66;4877569;29;44819;-85
2022/01/19 09:42:13;;;;;;;;;39.00;37.33;;;;;8.44;97.82;102144.16;4877365;29;45407;-84
2022/01/19 09:44:39;;;;;;;;;42.00;38.00;;;;;8.51;97.73;102147.16;4861087;29;46670;-86
2022/01/19 09:47:07;;;;;;;;;42.50;36.00;;;;;8.45;97.27;102130.09;4856223;29;46129;-84
2022/01/19 09:49:34;;;;;;;;;45.00;37.00;;;;;8.41;97.24;102124.63;4851830;29;45488;-84
2022/01/19 09:52:03;;;;;;;;;39.00;35.00;;;;;8.56;97.27;102148.28;4871522;29;45590;-83
2022/01/19 09:54:30;;;;;;;;;35.67;32.33;;;;;8.46;97.57;102122.19;4875642;29;47354;-84
2022/01/19 09:56:56;;;;;;;;;45.33;38.67;;;;;8.61;97.48;102143.19;4868852;29;44791;-85
2022/01/19 09:59:23;;;;;;;;;41.00;36.00;;;;;8.50;97.14;102124.13;4869988;29;45438;-84
2022/01/19 10:01:57;;;;;;;;;42.00;38.67;;;;;8.57;97.31;102131.53;4854681;29;44896;-82
2022/01/19 10:04:46;;;;;;;;;42.00;36.67;;;;;8.62;97.20;102126.41;4876072;29;45351;-84
2022/01/19 10:07:23;;;;;;;;;43.67;37.33;;;;;8.72;97.09;102133.94;4878885;29;45458;-84
2022/01/19 10:09:57;;;;;;;;;48.00;40.67;;;;;8.50;96.88;102081.69;4877307;29;44960;-85
2022/01/19 10:18:17;;;;;;;;;39.00;34.00;;;;;8.84;96.92;102130.91;4871461;29;45680;-84
2022/01/19 10:20:44;;;;;;;;;51.00;40.33;;;;;8.78;96.75;102120.94;4874620;29;45439;-84
2022/01/19 10:23:33;;;;;;;;;45.33;38.67;;;;;8.80;96.48;102121.91;4869168;29;45491;-85
2022/01/19 10:26:01;;;;;;;;;32.67;32.67;;;;;8.85;96.75;102131.81;4856337;29;46975;-85
2022/01/19 10:28:27;;;;;;;;;46.67;39.33;;;;;8.92;96.90;102140.13;4874761;29;44940;-85
2022/01/19 10:30:53;;;;;;;;;40.00;37.67;;;;;8.93;96.03;102136.66;4869232;29;45545;-85
2022/01/19 10:33:19;;;;;;;;;48.00;39.67;;;;;8.87;96.51;102130.19;4872341;29;45403;-83
2022/01/19 10:35:49;;;;;;;;;37.67;34.67;;;;;8.76;96.38;102101.41;4874619;29;47655;-85
2022/01/19 10:38:24;;;;;;;;;45.00;36.67;;;;;8.92;96.35;102131.25;4877352;29;44786;-84
2022/01/19 10:40:58;;;;;;;;;49.67;40.67;;;;;9.03;96.34;102143.25;4872319;29;45671;-84
2022/01/19 10:43:27;;;;;;;;;45.33;40.00;;;;;8.96;96.66;102147.38;4863527;29;44882;-84
2022/01/19 10:45:55;;;;;;;;;45.00;40.00;;;;;8.94;96.48;102137.53;4878875;29;45267;-85
2022/01/19 10:48:33;;;;;;;;;52.67;39.33;;;;;8.86;96.46;102118.63;4875709;29;45892;-85
2022/01/19 10:51:14;;;;;;;;;58.67;45.33;;;;;8.97;96.97;102122.66;4856840;29;44943;-84
2022/01/19 10:54:15;;;;;;;;;46.67;40.00;;;;;9.00;95.74;102133.41;4860283;29;45480;-84
2022/01/19 10:56:44;;;;;;;;;56.75;46.25;;;;;8.88;96.62;102122.25;4863528;29;46896;-85
2022/01/19 10:59:13;;;;;;;;;56.50;47.50;;;;;8.80;97.18;102116.63;4877856;29;44898;-85
2022/01/19 11:01:52;;;;;;;;;53.33;42.33;;;;;8.79;96.39;102120.13;4861175;29;45512;-84
2022/01/19 11:04:30;;;;;;;;;58.00;45.25;;;;;8.68;97.02;102112.53;4875789;29;45321;-84
2022/01/19 11:10:18;;;;;;;;;60.67;47.67;;;;;8.76;97.20;102113.78;4876382;29;45073;-84
2022/01/19 11:12:48;;;;;;;;;58.00;47.75;;;;;8.79;97.37;102116.56;4861290;29;45589;-84
2022/01/19 11:15:19;;;;;;;;;54.33;44.33;;;;;8.78;97.87;102106.78;4875160;29;45382;-85
2022/01/19 11:17:50;;;;;;;;;58.75;44.00;;;;;8.89;97.30;102107.28;4858859;29;46785;-87
2022/01/19 11:24:22;;;;;;;;;57.67;47.33;;;;;8.98;97.25;102097.94;4875187;29;45036;-88
2022/01/19 11:26:48;;;;;;;;;62.50;48.50;;;;;8.99;97.08;102091.78;4853683;29;45678;-86
2022/01/19 11:29:18;;;;;;;;;48.33;43.00;;;;;9.02;97.60;102096.31;4855558;29;47603;-85
2022/01/19 11:31:44;;;;;;;;;57.00;47.67;;;;;9.04;96.94;102086.66;4863400;29;45405;-86
2022/01/19 11:34:11;;;;;;;;;59.33;46.33;;;;;9.06;96.83;102086.75;4861822;29;45342;-87
2022/01/19 11:36:42;;;;;;;;;54.33;44.00;;;;;9.05;97.35;102082.25;4880414;29;45012;-86
2022/01/19 11:39:23;;;;;;;;;57.33;46.33;;;;;9.13;96.87;102086.13;4880900;29;45240;-86
2022/01/19 11:42:04;;;;;;;;;55.00;46.00;;;;;8.94;97.26;102042.91;4881973;29;45449;-86
2022/01/19 11:44:33;;;;;;;;;64.00;48.67;;;;;9.14;97.05;102072.94;4863744;29;45555;-86
2022/01/19 11:47:29;;;;;;;;;53.00;42.33;;;;;9.10;97.04;102056.84;4862806;29;45319;-86
2022/01/19 11:50:18;;;;;;;;;55.00;45.00;;;;;8.95;96.57;102026.19;4880920;29;46553;-86
2022/01/19 11:56:11;;;;;;;;;58.00;43.00;;;;;9.26;96.74;102045.09;4877438;29;45480;-86
2022/01/19 11:58:38;;;;;;;;;47.00;41.00;;;;;9.12;96.59;102033.91;4865255;29;44919;-85
2022/01/19 12:01:20;;;;;;;;;38.00;35.67;;;;;9.13;97.00;102018.06;4872571;29;46286;-86
2022/01/19 12:03:47;;;;;;;;;49.67;41.67;;;;;9.11;96.81;102030.38;4864707;29;45368;-87
2022/01/19 12:06:34;;;;;;;;;46.00;41.33;;;;;9.16;97.35;102020.81;4860052;29;44813;-87
2022/01/19 12:09:07;;;;;;;;;43.33;39.00;;;;;9.04;96.35;102006.16;4865188;29;44875;-83
2022/01/19 12:12:17;;;;;;;;;46.33;37.67;;;;;9.33;95.96;102048.06;4860850;29;45406;-88
2022/01/19 12:19:27;;;;;;;;;34.00;32.00;;;;;9.27;96.32;102041.59;4854686;29;45419;-85
2022/01/19 12:22:24;;;;;;;;;32.67;31.33;;;;;9.26;96.16;102030.06;4844950;29;44873;-85
2022/01/19 12:24:59;;;;;;;;;37.33;35.33;;;;;9.30;94.94;102036.41;4868254;29;45384;-87
2022/01/19 12:27:34;;;;;;;;;37.00;34.33;;;;;9.25;95.30;102022.97;4878238;29;45768;-86
2022/01/19 12:30:31;;;;;;;;;38.00;33.00;;;;;9.32;96.27;102035.63;4866369;29;45409;-86
2022/01/19 12:33:03;;;;;;;;;38.00;32.67;;;;;9.36;96.50;102032.25;4839859;29;44838;-86
2022/01/19 12:35:35;;;;;;;;;40.00;33.33;;;;;9.30;96.09;102015.19;4861841;29;46769;-88
2022/01/19 12:38:22;;;;;;;;;45.33;36.33;;;;;9.32;96.35;102014.38;4849707;29;45497;-85
2022/01/19 12:40:54;;;;;;;;;39.33;33.67;;;;;9.40;95.35;102023.56;4855324;29;45041;-85
2022/01/19 12:43:29;;;;;;;;;32.67;29.00;;;;;9.43;95.95;102033.38;4851311;29;45433;-86
2022/01/19 12:45:57;;;;;;;;;34.00;31.00;;;;;9.19;95.70;101990.88;4851251;29;45429;-84
2022/01/19 12:48:36;;;;;;;;;30.00;25.33;;;;;9.18;95.63;101986.38;4859377;29;45360;-85
2022/01/19 12:51:05;;;;;;;;;31.67;29.00;;;;;9.34;95.14;102020.66;4868968;29;44723;-84
2022/01/19 12:53:31;;;;;;;;;26.33;25.33;;;;;9.32;96.63;101998.44;4857384;29;44899;-82
2022/01/19 12:56:03;;;;;;;;;34.00;30.00;;;;;9.43;95.45;101996.22;4873684;29;47205;-84
2022/01/19 12:58:32;;;;;;;;;29.00;23.67;;;;;9.50;96.04;101997.38;4859352;29;45186;-85
2022/01/19 13:01:01;;;;;;;;;63.50;52.00;;;;;9.58;95.62;101994.16;4861884;29;45379;-85
2022/01/19 13:03:42;;;;;;;;;30.33;25.67;;;;;9.63;95.53;101989.00;4851553;29;44977;-86
2022/01/19 13:06:25;;;;;;;;;40.33;36.33;;;;;9.59;95.21;101990.66;4860070;29;45155;-85
2022/01/19 13:09:06;;;;;;;;;33.67;29.33;;;;;9.68;95.62;102003.38;4860882;29;45515;-84
2022/01/19 13:11:40;;;;;;;;;34.67;28.33;;;;;9.66;94.93;102006.84;4874944;29;45294;-85
2022/01/19 13:14:09;;;;;;;;;35.33;30.33;;;;;9.47;95.58;101990.16;4859349;29;45534;-84
2022/01/19 13:17:01;;;;;;;;;37.00;31.67;;;;;9.59;96.11;102005.66;4880346;29;46761;-84
2022/01/19 13:19:27;;;;;;;;;34.33;27.67;;;;;9.51;95.67;102010.69;4863495;29;45479;-84